sensor_id;sensor_type;location;lat;lon;timestamp;P1;durP1;ratioP1;P2;durP2;ratioP2
83840;SDS011;73868;52.172;10.668;2024-02-16T00:01:45;10.15;;;6.10;;
83840;SDS011;73868;52.172;10.668;2024-02-16T00:04:10;8.48;;;6.25;;
83840;SDS011;73868;52.172;10.668;2024-02-16T00:06:36;6.50;;;5.90;;
83840;SDS011;73868;52.172;10.668;2024-02-16T00:09:01;9.55;;;6.43;;
83840;SDS011;73868;52.172;10.668;2024-02-16T00:11:27;6.95;;;6.18;;
83840;SDS011;73868;52.172;10.668;2024-02-16T00:13:53;8.02;;;6.07;;
83840;SDS011;73868;52.172;10.668;2024-02-16T00:16:19;9.82;;;6.25;;
83840;SDS011;73868;52.172;10.668;2024-02-16T00:18:45;7.20;;;6.18;;
83840;SDS011;73868;52.172;10.668;2024-02-16T00:21:10;7.68;;;6.25;;
83840;SDS011;73868;52.172;10.668;2024-02-16T00:23:36;7.35;;;5.57;;
83840;SDS011;73868;52.172;10.668;2024-02-16T00:26:02;6.78;;;5.97;;
83840;SDS011;73868;52.172;10.668;2024-02-16T00:28:32;6.95;;;5.50;;
83840;SDS011;73868;52.172;10.668;2024-02-16T00:30:57;10.13;;;5.57;;
83840;SDS011;73868;52.172;10.668;2024-02-16T00:33:23;6.55;;;5.22;;
83840;SDS011;73868;52.172;10.668;2024-02-16T00:35:48;5.75;;;4.90;;
83840;SDS011;73868;52.172;10.668;2024-02-16T00:38:14;7.03;;;4.80;;
83840;SDS011;73868;52.172;10.668;2024-02-16T00:40:40;8.55;;;5.00;;
83840;SDS011;73868;52.172;10.668;2024-02-16T00:43:08;5.25;;;4.65;;
83840;SDS011;73868;52.172;10.668;2024-02-16T00:45:34;6.10;;;4.65;;
83840;SDS011;73868;52.172;10.668;2024-02-16T00:48:00;5.82;;;3.70;;
83840;SDS011;73868;52.172;10.668;2024-02-16T00:50:27;5.55;;;4.22;;
83840;SDS011;73868;52.172;10.668;2024-02-16T00:52:52;4.88;;;4.18;;
83840;SDS011;73868;52.172;10.668;2024-02-16T00:55:18;6.47;;;4.57;;
83840;SDS011;73868;52.172;10.668;2024-02-16T00:57:43;5.82;;;4.43;;
83840;SDS011;73868;52.172;10.668;2024-02-16T01:00:09;6.28;;;4.75;;
83840;SDS011;73868;52.172;10.668;2024-02-16T01:02:35;6.22;;;4.80;;
83840;SDS011;73868;52.172;10.668;2024-02-16T01:05:01;6.03;;;4.50;;
83840;SDS011;73868;52.172;10.668;2024-02-16T01:07:27;7.05;;;4.30;;
83840;SDS011;73868;52.172;10.668;2024-02-16T01:09:53;8.23;;;4.53;;
83840;SDS011;73868;52.172;10.668;2024-02-16T01:12:19;7.07;;;4.72;;
83840;SDS011;73868;52.172;10.668;2024-02-16T01:14:45;5.35;;;4.38;;
83840;SDS011;73868;52.172;10.668;2024-02-16T01:17:10;7.95;;;4.72;;
83840;SDS011;73868;52.172;10.668;2024-02-16T01:19:36;6.30;;;4.63;;
83840;SDS011;73868;52.172;10.668;2024-02-16T01:22:01;6.97;;;4.47;;
83840;SDS011;73868;52.172;10.668;2024-02-16T01:24:27;5.22;;;4.18;;
83840;SDS011;73868;52.172;10.668;2024-02-16T01:26:53;6.68;;;4.07;;
83840;SDS011;73868;52.172;10.668;2024-02-16T01:29:18;5.25;;;4.05;;
83840;SDS011;73868;52.172;10.668;2024-02-16T01:31:44;5.63;;;3.90;;
83840;SDS011;73868;52.172;10.668;2024-02-16T01:34:10;7.65;;;4.05;;
83840;SDS011;73868;52.172;10.668;2024-02-16T01:36:35;4.72;;;4.18;;
83840;SDS011;73868;52.172;10.668;2024-02-16T01:39:01;6.50;;;3.65;;
83840;SDS011;73868;52.172;10.668;2024-02-16T01:41:26;7.45;;;4.05;;
83840;SDS011;73868;52.172;10.668;2024-02-16T01:43:52;5.07;;;4.32;;
83840;SDS011;73868;52.172;10.668;2024-02-16T01:46:19;7.97;;;4.90;;
83840;SDS011;73868;52.172;10.668;2024-02-16T01:48:45;7.32;;;5.18;;
83840;SDS011;73868;52.172;10.668;2024-02-16T01:51:11;5.03;;;4.57;;
83840;SDS011;73868;52.172;10.668;2024-02-16T01:53:38;5.55;;;4.35;;
83840;SDS011;73868;52.172;10.668;2024-02-16T01:56:05;9.02;;;4.60;;
83840;SDS011;73868;52.172;10.668;2024-02-16T01:58:31;10.57;;;4.88;;
83840;SDS011;73868;52.172;10.668;2024-02-16T02:00:57;5.35;;;4.68;;
83840;SDS011;73868;52.172;10.668;2024-02-16T02:03:22;5.43;;;4.90;;
83840;SDS011;73868;52.172;10.668;2024-02-16T02:05:48;7.47;;;4.95;;
83840;SDS011;73868;52.172;10.668;2024-02-16T02:08:15;8.05;;;4.60;;
83840;SDS011;73868;52.172;10.668;2024-02-16T02:10:40;5.35;;;4.45;;
83840;SDS011;73868;52.172;10.668;2024-02-16T02:13:06;5.85;;;4.90;;
83840;SDS011;73868;52.172;10.668;2024-02-16T02:15:31;8.73;;;5.47;;
83840;SDS011;73868;52.172;10.668;2024-02-16T02:17:57;7.15;;;5.55;;
83840;SDS011;73868;52.172;10.668;2024-02-16T02:20:24;7.68;;;5.07;;
83840;SDS011;73868;52.172;10.668;2024-02-16T02:22:50;7.18;;;5.32;;
83840;SDS011;73868;52.172;10.668;2024-02-16T02:25:15;6.05;;;5.45;;
83840;SDS011;73868;52.172;10.668;2024-02-16T02:27:41;6.95;;;5.68;;
83840;SDS011;73868;52.172;10.668;2024-02-16T02:30:07;6.15;;;5.53;;
83840;SDS011;73868;52.172;10.668;2024-02-16T02:32:33;7.30;;;5.15;;
83840;SDS011;73868;52.172;10.668;2024-02-16T02:34:59;9.95;;;5.65;;
83840;SDS011;73868;52.172;10.668;2024-02-16T02:37:26;6.35;;;5.50;;
83840;SDS011;73868;52.172;10.668;2024-02-16T02:39:52;9.05;;;6.00;;
83840;SDS011;73868;52.172;10.668;2024-02-16T02:42:17;8.88;;;5.65;;
83840;SDS011;73868;52.172;10.668;2024-02-16T02:44:43;7.95;;;5.40;;
83840;SDS011;73868;52.172;10.668;2024-02-16T02:47:14;8.63;;;5.78;;
83840;SDS011;73868;52.172;10.668;2024-02-16T02:49:43;7.05;;;5.22;;
83840;SDS011;73868;52.172;10.668;2024-02-16T02:52:09;6.17;;;5.53;;
83840;SDS011;73868;52.172;10.668;2024-02-16T02:54:35;6.43;;;5.60;;
83840;SDS011;73868;52.172;10.668;2024-02-16T02:57:01;8.60;;;5.45;;
83840;SDS011;73868;52.172;10.668;2024-02-16T02:59:27;7.30;;;5.35;;
83840;SDS011;73868;52.172;10.668;2024-02-16T03:01:53;7.57;;;5.13;;
83840;SDS011;73868;52.172;10.668;2024-02-16T03:04:18;9.35;;;5.90;;
83840;SDS011;73868;52.172;10.668;2024-02-16T03:06:44;6.03;;;5.30;;
83840;SDS011;73868;52.172;10.668;2024-02-16T03:09:10;7.63;;;5.60;;
83840;SDS011;73868;52.172;10.668;2024-02-16T03:11:37;8.95;;;5.97;;
83840;SDS011;73868;52.172;10.668;2024-02-16T03:14:03;7.65;;;5.95;;
83840;SDS011;73868;52.172;10.668;2024-02-16T03:16:30;8.13;;;5.80;;
83840;SDS011;73868;52.172;10.668;2024-02-16T03:18:56;6.50;;;5.90;;
83840;SDS011;73868;52.172;10.668;2024-02-16T03:21:22;9.18;;;5.88;;
83840;SDS011;73868;52.172;10.668;2024-02-16T03:23:47;5.68;;;5.20;;
83840;SDS011;73868;52.172;10.668;2024-02-16T03:26:13;7.75;;;5.43;;
83840;SDS011;73868;52.172;10.668;2024-02-16T03:28:43;7.43;;;4.72;;
83840;SDS011;73868;52.172;10.668;2024-02-16T03:31:18;6.30;;;5.10;;
83840;SDS011;73868;52.172;10.668;2024-02-16T03:33:46;9.77;;;5.15;;
83840;SDS011;73868;52.172;10.668;2024-02-16T03:36:12;7.68;;;4.70;;
83840;SDS011;73868;52.172;10.668;2024-02-16T03:38:46;7.28;;;4.80;;
83840;SDS011;73868;52.172;10.668;2024-02-16T03:41:15;6.97;;;4.82;;
83840;SDS011;73868;52.172;10.668;2024-02-16T03:43:45;5.30;;;4.80;;
83840;SDS011;73868;52.172;10.668;2024-02-16T03:46:10;6.22;;;4.43;;
83840;SDS011;73868;52.172;10.668;2024-02-16T03:48:36;5.97;;;5.47;;
83840;SDS011;73868;52.172;10.668;2024-02-16T03:51:02;5.57;;;4.97;;
83840;SDS011;73868;52.172;10.668;2024-02-16T03:53:30;6.03;;;4.97;;
83840;SDS011;73868;52.172;10.668;2024-02-16T03:55:56;7.75;;;4.68;;
83840;SDS011;73868;52.172;10.668;2024-02-16T03:58:22;6.13;;;4.75;;
83840;SDS011;73868;52.172;10.668;2024-02-16T04:00:48;7.13;;;4.47;;
83840;SDS011;73868;52.172;10.668;2024-02-16T04:03:17;4.80;;;4.20;;
83840;SDS011;73868;52.172;10.668;2024-02-16T04:05:43;5.97;;;3.95;;
83840;SDS011;73868;52.172;10.668;2024-02-16T04:08:09;4.68;;;4.00;;
83840;SDS011;73868;52.172;10.668;2024-02-16T04:10:35;4.32;;;3.92;;
83840;SDS011;73868;52.172;10.668;2024-02-16T04:13:00;4.47;;;4.00;;
83840;SDS011;73868;52.172;10.668;2024-02-16T04:15:27;4.95;;;3.42;;
83840;SDS011;73868;52.172;10.668;2024-02-16T04:17:53;4.18;;;3.78;;
83840;SDS011;73868;52.172;10.668;2024-02-16T04:20:19;4.75;;;3.30;;
83840;SDS011;73868;52.172;10.668;2024-02-16T04:22:45;6.70;;;4.13;;
83840;SDS011;73868;52.172;10.668;2024-02-16T04:25:11;5.82;;;3.42;;
83840;SDS011;73868;52.172;10.668;2024-02-16T04:27:36;6.07;;;3.20;;
83840;SDS011;73868;52.172;10.668;2024-02-16T04:30:03;3.70;;;3.22;;
83840;SDS011;73868;52.172;10.668;2024-02-16T04:32:30;4.03;;;2.85;;
83840;SDS011;73868;52.172;10.668;2024-02-16T04:34:55;3.17;;;2.88;;
83840;SDS011;73868;52.172;10.668;2024-02-16T04:37:21;3.45;;;2.72;;
83840;SDS011;73868;52.172;10.668;2024-02-16T04:39:48;3.85;;;3.10;;
83840;SDS011;73868;52.172;10.668;2024-02-16T04:42:14;8.52;;;2.90;;
83840;SDS011;73868;52.172;10.668;2024-02-16T04:44:39;4.55;;;2.78;;
83840;SDS011;73868;52.172;10.668;2024-02-16T04:47:05;4.55;;;2.70;;
83840;SDS011;73868;52.172;10.668;2024-02-16T04:49:31;3.80;;;2.70;;
83840;SDS011;73868;52.172;10.668;2024-02-16T04:51:57;2.85;;;2.47;;
83840;SDS011;73868;52.172;10.668;2024-02-16T04:54:23;4.30;;;2.70;;
83840;SDS011;73868;52.172;10.668;2024-02-16T04:56:49;3.80;;;2.55;;
83840;SDS011;73868;52.172;10.668;2024-02-16T04:59:15;4.43;;;2.72;;
83840;SDS011;73868;52.172;10.668;2024-02-16T05:01:42;3.67;;;2.63;;
83840;SDS011;73868;52.172;10.668;2024-02-16T05:04:11;3.60;;;2.50;;
83840;SDS011;73868;52.172;10.668;2024-02-16T05:06:44;5.55;;;2.42;;
83840;SDS011;73868;52.172;10.668;2024-02-16T05:09:11;3.53;;;2.13;;
83840;SDS011;73868;52.172;10.668;2024-02-16T05:11:37;4.43;;;2.75;;
83840;SDS011;73868;52.172;10.668;2024-02-16T05:14:02;2.42;;;2.22;;
83840;SDS011;73868;52.172;10.668;2024-02-16T05:16:28;4.18;;;2.65;;
83840;SDS011;73868;52.172;10.668;2024-02-16T05:18:57;3.15;;;2.38;;
83840;SDS011;73868;52.172;10.668;2024-02-16T05:21:22;3.30;;;2.40;;
83840;SDS011;73868;52.172;10.668;2024-02-16T05:23:48;3.08;;;2.53;;
83840;SDS011;73868;52.172;10.668;2024-02-16T05:26:13;3.47;;;2.55;;
83840;SDS011;73868;52.172;10.668;2024-02-16T05:28:39;2.25;;;2.05;;
83840;SDS011;73868;52.172;10.668;2024-02-16T05:31:15;5.47;;;2.70;;
83840;SDS011;73868;52.172;10.668;2024-02-16T05:33:46;3.50;;;2.80;;
83840;SDS011;73868;52.172;10.668;2024-02-16T05:36:18;4.95;;;2.80;;
83840;SDS011;73868;52.172;10.668;2024-02-16T05:38:45;3.75;;;2.60;;
83840;SDS011;73868;52.172;10.668;2024-02-16T05:41:11;4.20;;;3.07;;
83840;SDS011;73868;52.172;10.668;2024-02-16T05:43:38;5.20;;;3.35;;
83840;SDS011;73868;52.172;10.668;2024-02-16T05:46:04;3.35;;;2.90;;
83840;SDS011;73868;52.172;10.668;2024-02-16T05:48:33;3.95;;;2.72;;
83840;SDS011;73868;52.172;10.668;2024-02-16T05:51:02;4.30;;;2.67;;
83840;SDS011;73868;52.172;10.668;2024-02-16T05:53:28;4.00;;;2.53;;
83840;SDS011;73868;52.172;10.668;2024-02-16T05:55:53;4.93;;;2.30;;
83840;SDS011;73868;52.172;10.668;2024-02-16T05:58:20;2.60;;;2.40;;
83840;SDS011;73868;52.172;10.668;2024-02-16T06:00:45;4.03;;;2.80;;
83840;SDS011;73868;52.172;10.668;2024-02-16T06:03:12;5.95;;;2.90;;
83840;SDS011;73868;52.172;10.668;2024-02-16T06:05:38;3.83;;;2.88;;
83840;SDS011;73868;52.172;10.668;2024-02-16T06:08:05;3.38;;;2.80;;
83840;SDS011;73868;52.172;10.668;2024-02-16T06:10:34;2.90;;;2.50;;
83840;SDS011;73868;52.172;10.668;2024-02-16T06:13:00;4.30;;;2.70;;
83840;SDS011;73868;52.172;10.668;2024-02-16T06:15:25;3.13;;;2.78;;
83840;SDS011;73868;52.172;10.668;2024-02-16T06:17:51;5.10;;;2.80;;
83840;SDS011;73868;52.172;10.668;2024-02-16T06:20:17;3.90;;;2.72;;
83840;SDS011;73868;52.172;10.668;2024-02-16T06:22:43;5.57;;;2.80;;
83840;SDS011;73868;52.172;10.668;2024-02-16T06:25:09;3.58;;;2.58;;
83840;SDS011;73868;52.172;10.668;2024-02-16T06:27:34;2.85;;;2.58;;
83840;SDS011;73868;52.172;10.668;2024-02-16T06:30:00;2.95;;;2.45;;
83840;SDS011;73868;52.172;10.668;2024-02-16T06:32:28;2.60;;;2.40;;
83840;SDS011;73868;52.172;10.668;2024-02-16T06:34:54;2.95;;;2.40;;
83840;SDS011;73868;52.172;10.668;2024-02-16T06:37:20;2.42;;;2.22;;
83840;SDS011;73868;52.172;10.668;2024-02-16T06:39:46;2.17;;;1.98;;
83840;SDS011;73868;52.172;10.668;2024-02-16T06:42:11;3.90;;;2.40;;
83840;SDS011;73868;52.172;10.668;2024-02-16T06:44:37;2.95;;;2.25;;
83840;SDS011;73868;52.172;10.668;2024-02-16T06:47:04;3.22;;;2.25;;
83840;SDS011;73868;52.172;10.668;2024-02-16T06:49:30;2.60;;;2.22;;
83840;SDS011;73868;52.172;10.668;2024-02-16T06:51:56;4.75;;;2.75;;
83840;SDS011;73868;52.172;10.668;2024-02-16T06:54:21;3.60;;;2.55;;
83840;SDS011;73868;52.172;10.668;2024-02-16T06:56:47;5.15;;;2.50;;
83840;SDS011;73868;52.172;10.668;2024-02-16T06:59:12;3.42;;;2.15;;
83840;SDS011;73868;52.172;10.668;2024-02-16T07:01:38;3.25;;;2.25;;
83840;SDS011;73868;52.172;10.668;2024-02-16T07:04:04;2.30;;;2.10;;
83840;SDS011;73868;52.172;10.668;2024-02-16T07:06:30;2.08;;;1.83;;
83840;SDS011;73868;52.172;10.668;2024-02-16T07:08:56;3.10;;;1.67;;
83840;SDS011;73868;52.172;10.668;2024-02-16T07:11:21;3.78;;;1.92;;
83840;SDS011;73868;52.172;10.668;2024-02-16T07:13:47;2.30;;;2.10;;
83840;SDS011;73868;52.172;10.668;2024-02-16T07:16:13;4.30;;;2.03;;
83840;SDS011;73868;52.172;10.668;2024-02-16T07:18:39;2.08;;;1.70;;
83840;SDS011;73868;52.172;10.668;2024-02-16T07:21:04;2.08;;;1.85;;
83840;SDS011;73868;52.172;10.668;2024-02-16T07:23:30;2.67;;;2.08;;
83840;SDS011;73868;52.172;10.668;2024-02-16T07:25:55;3.63;;;2.10;;
83840;SDS011;73868;52.172;10.668;2024-02-16T07:28:23;2.72;;;1.98;;
83840;SDS011;73868;52.172;10.668;2024-02-16T07:30:49;2.42;;;2.10;;
83840;SDS011;73868;52.172;10.668;2024-02-16T07:33:16;3.13;;;2.00;;
83840;SDS011;73868;52.172;10.668;2024-02-16T07:35:41;2.40;;;2.10;;
83840;SDS011;73868;52.172;10.668;2024-02-16T07:38:07;2.30;;;1.98;;
83840;SDS011;73868;52.172;10.668;2024-02-16T07:40:33;1.95;;;1.70;;
83840;SDS011;73868;52.172;10.668;2024-02-16T07:42:58;4.22;;;2.13;;
83840;SDS011;73868;52.172;10.668;2024-02-16T07:45:25;3.10;;;2.50;;
83840;SDS011;73868;52.172;10.668;2024-02-16T07:47:51;3.20;;;2.08;;
83840;SDS011;73868;52.172;10.668;2024-02-16T07:50:22;2.47;;;2.10;;
83840;SDS011;73868;52.172;10.668;2024-02-16T07:52:49;2.75;;;2.05;;
83840;SDS011;73868;52.172;10.668;2024-02-16T07:55:16;2.72;;;2.10;;
83840;SDS011;73868;52.172;10.668;2024-02-16T07:57:45;5.47;;;2.38;;
83840;SDS011;73868;52.172;10.668;2024-02-16T08:00:12;2.03;;;1.63;;
83840;SDS011;73868;52.172;10.668;2024-02-16T08:02:38;2.13;;;1.70;;
83840;SDS011;73868;52.172;10.668;2024-02-16T08:05:05;1.73;;;1.60;;
83840;SDS011;73868;52.172;10.668;2024-02-16T08:07:32;2.20;;;1.90;;
83840;SDS011;73868;52.172;10.668;2024-02-16T08:09:58;2.45;;;1.77;;
83840;SDS011;73868;52.172;10.668;2024-02-16T08:12:25;3.08;;;1.85;;
83840;SDS011;73868;52.172;10.668;2024-02-16T08:14:53;2.75;;;1.80;;
83840;SDS011;73868;52.172;10.668;2024-02-16T08:17:18;9.40;;;8.60;;
83840;SDS011;73868;52.172;10.668;2024-02-16T08:19:50;5.53;;;4.85;;
83840;SDS011;73868;52.172;10.668;2024-02-16T08:22:17;3.50;;;2.95;;
83840;SDS011;73868;52.172;10.668;2024-02-16T08:24:42;2.85;;;2.05;;
83840;SDS011;73868;52.172;10.668;2024-02-16T08:27:11;1.67;;;1.58;;
83840;SDS011;73868;52.172;10.668;2024-02-16T08:29:37;2.67;;;1.83;;
83840;SDS011;73868;52.172;10.668;2024-02-16T08:32:03;2.70;;;1.60;;
83840;SDS011;73868;52.172;10.668;2024-02-16T08:34:30;2.22;;;2.03;;
83840;SDS011;73868;52.172;10.668;2024-02-16T08:36:56;1.77;;;1.52;;
83840;SDS011;73868;52.172;10.668;2024-02-16T08:39:22;2.42;;;1.98;;
83840;SDS011;73868;52.172;10.668;2024-02-16T08:41:50;2.35;;;1.50;;
83840;SDS011;73868;52.172;10.668;2024-02-16T08:44:16;2.33;;;1.80;;
83840;SDS011;73868;52.172;10.668;2024-02-16T08:46:41;3.05;;;1.95;;
83840;SDS011;73868;52.172;10.668;2024-02-16T08:49:07;3.20;;;1.88;;
83840;SDS011;73868;52.172;10.668;2024-02-16T08:51:34;3.00;;;1.75;;
83840;SDS011;73868;52.172;10.668;2024-02-16T08:54:00;2.33;;;2.03;;
83840;SDS011;73868;52.172;10.668;2024-02-16T08:56:29;2.58;;;1.65;;
83840;SDS011;73868;52.172;10.668;2024-02-16T08:58:56;3.25;;;1.83;;
83840;SDS011;73868;52.172;10.668;2024-02-16T09:01:37;2.88;;;1.90;;
83840;SDS011;73868;52.172;10.668;2024-02-16T09:04:04;2.53;;;1.60;;
83840;SDS011;73868;52.172;10.668;2024-02-16T09:06:30;2.10;;;1.90;;
83840;SDS011;73868;52.172;10.668;2024-02-16T09:08:56;2.58;;;1.63;;
83840;SDS011;73868;52.172;10.668;2024-02-16T09:11:22;2.63;;;1.63;;
83840;SDS011;73868;52.172;10.668;2024-02-16T09:13:49;2.78;;;1.65;;
83840;SDS011;73868;52.172;10.668;2024-02-16T09:16:14;2.00;;;1.80;;
83840;SDS011;73868;52.172;10.668;2024-02-16T09:18:40;3.78;;;1.60;;
83840;SDS011;73868;52.172;10.668;2024-02-16T09:21:06;2.00;;;1.80;;
83840;SDS011;73868;52.172;10.668;2024-02-16T09:23:32;2.58;;;1.70;;
83840;SDS011;73868;52.172;10.668;2024-02-16T09:25:59;2.88;;;1.75;;
83840;SDS011;73868;52.172;10.668;2024-02-16T09:28:25;2.25;;;1.70;;
83840;SDS011;73868;52.172;10.668;2024-02-16T09:30:53;3.70;;;1.70;;
83840;SDS011;73868;52.172;10.668;2024-02-16T09:33:20;4.47;;;4.07;;
83840;SDS011;73868;52.172;10.668;2024-02-16T09:35:46;2.70;;;1.95;;
83840;SDS011;73868;52.172;10.668;2024-02-16T09:38:12;3.50;;;3.20;;
83840;SDS011;73868;52.172;10.668;2024-02-16T09:40:38;4.15;;;2.70;;
83840;SDS011;73868;52.172;10.668;2024-02-16T09:43:07;2.25;;;1.58;;
83840;SDS011;73868;52.172;10.668;2024-02-16T09:45:32;3.72;;;2.97;;
83840;SDS011;73868;52.172;10.668;2024-02-16T09:47:58;2.70;;;2.50;;
83840;SDS011;73868;52.172;10.668;2024-02-16T09:50:24;2.15;;;1.90;;
83840;SDS011;73868;52.172;10.668;2024-02-16T09:52:52;3.55;;;2.15;;
83840;SDS011;73868;52.172;10.668;2024-02-16T09:55:19;3.17;;;1.83;;
83840;SDS011;73868;52.172;10.668;2024-02-16T09:57:45;2.17;;;1.98;;
83840;SDS011;73868;52.172;10.668;2024-02-16T10:00:10;2.10;;;1.77;;
83840;SDS011;73868;52.172;10.668;2024-02-16T10:02:43;1.92;;;1.73;;
83840;SDS011;73868;52.172;10.668;2024-02-16T10:05:13;3.38;;;1.70;;
83840;SDS011;73868;52.172;10.668;2024-02-16T10:07:44;3.05;;;1.83;;
83840;SDS011;73868;52.172;10.668;2024-02-16T10:10:28;4.43;;;2.50;;
83840;SDS011;73868;52.172;10.668;2024-02-16T10:13:05;2.40;;;2.17;;
83840;SDS011;73868;52.172;10.668;2024-02-16T10:15:33;5.90;;;1.90;;
83840;SDS011;73868;52.172;10.668;2024-02-16T10:20:29;1.85;;;1.40;;
83840;SDS011;73868;52.172;10.668;2024-02-16T10:23:04;2.90;;;1.80;;
83840;SDS011;73868;52.172;10.668;2024-02-16T10:25:31;1.50;;;1.40;;
83840;SDS011;73868;52.172;10.668;2024-02-16T10:27:57;2.17;;;1.40;;
83840;SDS011;73868;52.172;10.668;2024-02-16T10:30:34;1.77;;;1.40;;
83840;SDS011;73868;52.172;10.668;2024-02-16T10:33:04;1.75;;;1.60;;
83840;SDS011;73868;52.172;10.668;2024-02-16T10:35:31;2.17;;;1.60;;
83840;SDS011;73868;52.172;10.668;2024-02-16T10:38:01;1.80;;;1.50;;
83840;SDS011;73868;52.172;10.668;2024-02-16T10:40:32;2.83;;;1.60;;
83840;SDS011;73868;52.172;10.668;2024-02-16T10:43:00;4.40;;;1.67;;
83840;SDS011;73868;52.172;10.668;2024-02-16T10:45:29;3.63;;;1.60;;
83840;SDS011;73868;52.172;10.668;2024-02-16T10:47:56;2.10;;;1.70;;
83840;SDS011;73868;52.172;10.668;2024-02-16T10:50:22;1.73;;;1.40;;
83840;SDS011;73868;52.172;10.668;2024-02-16T10:52:48;2.72;;;1.38;;
83840;SDS011;73868;52.172;10.668;2024-02-16T10:55:15;2.13;;;1.48;;
83840;SDS011;73868;52.172;10.668;2024-02-16T10:57:41;2.90;;;1.33;;
83840;SDS011;73868;52.172;10.668;2024-02-16T11:00:07;1.90;;;1.27;;
83840;SDS011;73868;52.172;10.668;2024-02-16T11:02:53;1.70;;;1.52;;
83840;SDS011;73868;52.172;10.668;2024-02-16T11:08:14;3.22;;;1.50;;
83840;SDS011;73868;52.172;10.668;2024-02-16T11:10:41;2.83;;;1.25;;
83840;SDS011;73868;52.172;10.668;2024-02-16T11:13:22;4.80;;;2.15;;
83840;SDS011;73868;52.172;10.668;2024-02-16T11:15:56;2.88;;;1.50;;
83840;SDS011;73868;52.172;10.668;2024-02-16T11:18:26;1.80;;;1.38;;
83840;SDS011;73868;52.172;10.668;2024-02-16T11:20:53;2.05;;;1.80;;
83840;SDS011;73868;52.172;10.668;2024-02-16T11:23:24;2.15;;;1.60;;
83840;SDS011;73868;52.172;10.668;2024-02-16T11:25:53;3.80;;;1.50;;
83840;SDS011;73868;52.172;10.668;2024-02-16T11:28:19;2.30;;;1.63;;
83840;SDS011;73868;52.172;10.668;2024-02-16T11:30:44;4.75;;;1.70;;
83840;SDS011;73868;52.172;10.668;2024-02-16T11:33:10;3.25;;;2.28;;
83840;SDS011;73868;52.172;10.668;2024-02-16T11:35:36;2.78;;;1.55;;
83840;SDS011;73868;52.172;10.668;2024-02-16T11:38:02;1.95;;;1.27;;
83840;SDS011;73868;52.172;10.668;2024-02-16T11:40:28;2.97;;;1.60;;
83840;SDS011;73868;52.172;10.668;2024-02-16T11:42:59;1.73;;;1.63;;
83840;SDS011;73868;52.172;10.668;2024-02-16T11:45:25;3.08;;;1.98;;
83840;SDS011;73868;52.172;10.668;2024-02-16T11:48:02;2.75;;;1.58;;
83840;SDS011;73868;52.172;10.668;2024-02-16T11:50:28;1.92;;;1.60;;
83840;SDS011;73868;52.172;10.668;2024-02-16T11:52:54;2.13;;;1.50;;
83840;SDS011;73868;52.172;10.668;2024-02-16T11:55:20;3.03;;;1.73;;
83840;SDS011;73868;52.172;10.668;2024-02-16T11:57:46;3.08;;;1.80;;
83840;SDS011;73868;52.172;10.668;2024-02-16T12:00:15;2.33;;;1.80;;
83840;SDS011;73868;52.172;10.668;2024-02-16T12:02:41;3.10;;;1.92;;
83840;SDS011;73868;52.172;10.668;2024-02-16T12:05:07;1.63;;;1.52;;
83840;SDS011;73868;52.172;10.668;2024-02-16T12:07:33;2.90;;;1.70;;
83840;SDS011;73868;52.172;10.668;2024-02-16T12:10:01;1.85;;;1.65;;
83840;SDS011;73868;52.172;10.668;2024-02-16T12:12:30;1.98;;;1.77;;
83840;SDS011;73868;52.172;10.668;2024-02-16T12:14:56;3.20;;;1.90;;
83840;SDS011;73868;52.172;10.668;2024-02-16T12:17:23;2.17;;;1.60;;
83840;SDS011;73868;52.172;10.668;2024-02-16T12:19:49;2.80;;;1.55;;
83840;SDS011;73868;52.172;10.668;2024-02-16T12:22:22;3.15;;;1.98;;
83840;SDS011;73868;52.172;10.668;2024-02-16T12:24:48;2.90;;;2.15;;
83840;SDS011;73868;52.172;10.668;2024-02-16T12:27:15;2.38;;;1.63;;
83840;SDS011;73868;52.172;10.668;2024-02-16T12:29:41;3.78;;;1.88;;
83840;SDS011;73868;52.172;10.668;2024-02-16T12:32:07;2.33;;;1.88;;
83840;SDS011;73868;52.172;10.668;2024-02-16T12:34:34;1.88;;;1.77;;
83840;SDS011;73868;52.172;10.668;2024-02-16T12:37:06;2.20;;;1.77;;
83840;SDS011;73868;52.172;10.668;2024-02-16T12:39:36;3.05;;;1.90;;
83840;SDS011;73868;52.172;10.668;2024-02-16T12:42:02;2.53;;;2.03;;
83840;SDS011;73868;52.172;10.668;2024-02-16T12:44:28;3.55;;;1.90;;
83840;SDS011;73868;52.172;10.668;2024-02-16T12:46:53;2.88;;;1.70;;
83840;SDS011;73868;52.172;10.668;2024-02-16T12:49:19;3.70;;;2.08;;
83840;SDS011;73868;52.172;10.668;2024-02-16T12:51:47;2.53;;;2.10;;
83840;SDS011;73868;52.172;10.668;2024-02-16T12:54:14;4.25;;;2.15;;
83840;SDS011;73868;52.172;10.668;2024-02-16T12:56:43;3.17;;;2.05;;
83840;SDS011;73868;52.172;10.668;2024-02-16T12:59:13;2.95;;;2.10;;
83840;SDS011;73868;52.172;10.668;2024-02-16T13:01:39;4.00;;;2.13;;
83840;SDS011;73868;52.172;10.668;2024-02-16T13:04:06;6.22;;;2.05;;
83840;SDS011;73868;52.172;10.668;2024-02-16T13:06:32;3.08;;;2.22;;
83840;SDS011;73868;52.172;10.668;2024-02-16T13:08:58;2.42;;;1.80;;
83840;SDS011;73868;52.172;10.668;2024-02-16T13:11:24;2.95;;;2.08;;
83840;SDS011;73868;52.172;10.668;2024-02-16T13:13:50;3.35;;;2.08;;
83840;SDS011;73868;52.172;10.668;2024-02-16T13:16:16;4.40;;;2.10;;
83840;SDS011;73868;52.172;10.668;2024-02-16T13:18:41;5.45;;;2.20;;
83840;SDS011;73868;52.172;10.668;2024-02-16T13:21:07;3.92;;;2.30;;
83840;SDS011;73868;52.172;10.668;2024-02-16T13:23:33;3.50;;;2.22;;
83840;SDS011;73868;52.172;10.668;2024-02-16T13:25:58;2.90;;;2.15;;
83840;SDS011;73868;52.172;10.668;2024-02-16T13:28:24;4.03;;;2.10;;
83840;SDS011;73868;52.172;10.668;2024-02-16T13:30:49;3.85;;;2.35;;
83840;SDS011;73868;52.172;10.668;2024-02-16T13:33:15;3.20;;;2.20;;
83840;SDS011;73868;52.172;10.668;2024-02-16T13:35:40;5.43;;;2.00;;
83840;SDS011;73868;52.172;10.668;2024-02-16T13:38:06;2.78;;;2.10;;
83840;SDS011;73868;52.172;10.668;2024-02-16T13:40:32;2.88;;;2.20;;
83840;SDS011;73868;52.172;10.668;2024-02-16T13:42:58;3.28;;;2.03;;
83840;SDS011;73868;52.172;10.668;2024-02-16T13:45:32;2.75;;;2.00;;
83840;SDS011;73868;52.172;10.668;2024-02-16T13:48:16;3.65;;;2.03;;
83840;SDS011;73868;52.172;10.668;2024-02-16T13:50:43;4.25;;;2.40;;
83840;SDS011;73868;52.172;10.668;2024-02-16T13:53:10;5.43;;;2.30;;
83840;SDS011;73868;52.172;10.668;2024-02-16T13:55:36;3.45;;;1.92;;
83840;SDS011;73868;52.172;10.668;2024-02-16T13:58:02;2.95;;;1.98;;
83840;SDS011;73868;52.172;10.668;2024-02-16T14:00:27;3.45;;;2.28;;
83840;SDS011;73868;52.172;10.668;2024-02-16T14:02:53;2.60;;;2.35;;
83840;SDS011;73868;52.172;10.668;2024-02-16T14:05:19;5.25;;;2.90;;
83840;SDS011;73868;52.172;10.668;2024-02-16T14:07:45;5.53;;;2.22;;
83840;SDS011;73868;52.172;10.668;2024-02-16T14:10:11;3.65;;;2.53;;
83840;SDS011;73868;52.172;10.668;2024-02-16T14:12:37;4.07;;;2.20;;
83840;SDS011;73868;52.172;10.668;2024-02-16T14:15:02;4.85;;;2.60;;
83840;SDS011;73868;52.172;10.668;2024-02-16T14:17:28;3.25;;;2.28;;
83840;SDS011;73868;52.172;10.668;2024-02-16T14:19:54;3.78;;;2.00;;
83840;SDS011;73868;52.172;10.668;2024-02-16T14:22:19;6.15;;;2.53;;
83840;SDS011;73868;52.172;10.668;2024-02-16T14:24:45;3.17;;;2.20;;
83840;SDS011;73868;52.172;10.668;2024-02-16T14:27:10;4.78;;;2.67;;
83840;SDS011;73868;52.172;10.668;2024-02-16T14:29:36;3.05;;;2.47;;
83840;SDS011;73868;52.172;10.668;2024-02-16T14:32:01;3.08;;;2.38;;
83840;SDS011;73868;52.172;10.668;2024-02-16T14:34:27;3.40;;;2.30;;
83840;SDS011;73868;52.172;10.668;2024-02-16T14:36:53;6.13;;;2.63;;